Time;durP1;ratioP1;P1;durP2;ratioP2;P2;SDS_P1;SDS_P2;PMS_P1;PMS_P2;Temp;Humidity;BMP_temperature;BMP_pressure;BME280_temperature;BME280_humidity;BME280_pressure;Samples;Min_cycle;Max_cycle;Signal;HPM_P1;HPM_P2
2023/06/13 00:00:57;;;;;;;4.88;2.42;;;;;;;20.30;96.16;99178.75;5061455;28;20029;-80
2023/06/13 00:03:22;;;;;;;4.28;3.58;;;;;;;20.49;95.38;99207.06;5055301;28;20043;-82
2023/06/13 00:05:48;;;;;;;4.82;3.38;;;;;;;20.31;95.74;99180.50;5053409;28;20029;-80
2023/06/13 00:08:17;;;;;;;4.18;3.13;;;;;;;20.53;96.05;99211.28;5055678;28;20036;-80
2023/06/13 00:10:46;;;;;;;4.95;2.53;;;;;;;20.54;96.00;99207.63;5055775;28;20024;-81
2023/06/13 00:13:13;;;;;;;3.90;2.70;;;;;;;20.55;95.47;99188.75;5058166;28;20021;-80
2023/06/13 00:15:41;;;;;;;3.60;2.28;;;;;;;20.56;95.33;99190.50;5062491;28;20017;-80
2023/06/13 00:18:06;;;;;;;10.73;4.85;;;;;;;20.55;95.15;99178.03;5062113;28;20036;-81
2023/06/13 00:20:33;;;;;;;3.95;2.90;;;;;;;20.60;95.03;99191.16;5059819;28;20029;-80
2023/06/13 00:22:58;;;;;;;3.90;2.78;;;;;;;20.45;95.32;99171.59;5052715;28;20130;-80
2023/06/13 00:25:23;;;;;;;4.68;2.75;;;;;;;20.51;95.03;99170.31;5052903;28;20406;-81
2023/06/13 00:27:49;;;;;;;3.00;2.20;;;;;;;20.68;94.81;99201.41;5057399;28;20717;-79
2023/06/13 00:30:14;;;;;;;3.33;2.35;;;;;;;20.52;94.30;99156.81;5066919;28;20029;-78
2023/06/13 00:32:40;;;;;;;4.10;2.55;;;;;;;20.47;95.13;99164.28;5058235;28;20055;-78
2023/06/13 00:35:08;;;;;;;7.97;3.20;;;;;;;20.69;94.97;99184.38;5067680;28;20117;-78
2023/06/13 00:37:34;;;;;;;5.70;3.92;;;;;;;20.74;95.13;99190.28;5051882;28;20495;-80
2023/06/13 00:39:59;;;;;;;3.92;2.20;;;;;;;20.63;95.40;99184.75;5066092;28;20036;-78
2023/06/13 00:42:25;;;;;;;4.75;3.45;;;;;;;20.69;95.07;99176.34;5099007;28;20404;-80
2023/06/13 00:44:51;;;;;;;9.95;3.42;;;;;;;20.61;95.01;99163.41;5109626;28;20061;-80
2023/06/13 00:47:17;;;;;;;7.13;2.72;;;;;;;20.80;94.90;99199.75;5106763;28;20052;-80
2023/06/13 00:49:43;;;;;;;5.95;3.33;;;;;;;20.83;94.44;99195.03;5091205;28;20040;-80
2023/06/13 00:52:09;;;;;;;7.60;3.47;;;;;;;20.72;94.90;99186.84;5090929;28;20039;-80
2023/06/13 00:54:38;;;;;;;4.47;3.33;;;;;;;20.77;94.25;99184.72;5090733;28;20503;-80
2023/06/13 00:57:07;;;;;;;3.30;2.42;;;;;;;20.74;93.95;99195.66;5091794;28;20032;-81
2023/06/13 00:59:33;;;;;;;5.07;3.08;;;;;;;20.73;93.98;99186.75;5090712;28;20092;-81
2023/06/13 01:01:59;;;;;;;6.70;3.50;;;;;;;20.51;94.26;99168.50;5090833;28;20114;-81
2023/06/13 01:04:27;;;;;;;5.30;2.70;;;;;;;20.57;94.72;99173.47;5090771;28;20519;-81
2023/06/13 01:06:52;;;;;;;3.45;2.08;;;;;;;20.54;93.51;99160.28;5072409;28;20043;-80
2023/06/13 01:09:18;;;;;;;4.97;3.60;;;;;;;20.56;94.13;99173.56;5091521;28;20418;-81
2023/06/13 01:12:22;;;;;;;4.63;3.03;;;;;;;20.56;94.31;99178.94;5092915;28;20027;-81
2023/06/13 01:15:04;;;;;;;;;;;;;;;20.50;95.17;99190.88;5111443;28;20034;-80
2023/06/13 01:17:36;;;;;;;4.10;2.58;;;;;;;20.51;95.75;99191.75;5110557;28;19977;-81
2023/06/13 01:20:06;;;;;;;5.18;2.40;;;;;;;20.31;95.92;99160.88;5092873;28;20420;-81
2023/06/13 01:22:45;;;;;;;4.47;3.10;;;;;;;20.30;96.21;99151.97;5108861;28;20054;-81
2023/06/13 01:25:29;;;;;;;4.68;2.70;;;;;;;20.55;95.24;99178.03;5110871;28;20160;-81
2023/06/13 01:27:57;;;;;;;3.53;2.42;;;;;;;20.44;94.92;99159.13;5092118;28;20047;-79
2023/06/13 01:30:25;;;;;;;5.10;2.50;;;;;;;20.19;96.00;99130.41;5092815;28;20412;-81
2023/06/13 01:32:52;;;;;;;5.70;3.72;;;;;;;20.37;94.99;99149.75;5109211;28;20038;-82
2023/06/13 01:35:18;;;;;;;4.25;3.10;;;;;;;20.59;94.31;99178.72;5092837;28;20034;-81
2023/06/13 01:37:44;;;;;;;5.95;3.75;;;;;;;20.53;93.57;99161.22;5106061;28;20505;-81
2023/06/13 01:40:10;;;;;;;4.85;3.35;;;;;;;20.53;94.48;99171.09;5090223;28;20076;-79
2023/06/13 01:42:35;;;;;;;3.85;2.78;;;;;;;20.46;94.39;99164.41;5089603;28;20059;-81
2023/06/13 01:45:02;;;;;;;3.65;2.03;;;;;;;20.24;95.52;99144.34;5091173;28;20115;-78
2023/06/13 01:47:35;;;;;;;5.40;2.88;;;;;;;20.43;96.42;99184.19;5089772;28;20147;-79
2023/06/13 01:50:20;;;;;;;3.40;2.03;;;;;;;20.54;95.61;99176.34;5090213;28;20055;-78
2023/06/13 01:53:24;;;;;;;5.10;2.33;;;;;;;20.41;96.65;99175.41;5091162;28;20051;-79
2023/06/13 01:56:01;;;;;;;4.00;2.70;;;;;;;20.02;98.76;99179.66;4992127;28;20050;-78
2023/06/13 01:58:30;;;;;;;4.88;3.10;;;;;;;19.92;99.11;99178.50;5007949;28;20104;-78
2023/06/13 02:00:57;;;;;;;2.97;2.08;;;;;;;19.46;99.86;99158.03;4990898;28;20038;-81
2023/06/13 02:03:24;;;;;;;17.73;3.05;;;;;;;19.44;99.69;99136.72;5007487;28;20038;-83
2023/06/13 02:05:51;;;;;;;5.78;2.63;;;;;;;19.55;99.68;99170.00;4988261;28;20519;-81
2023/06/13 02:08:16;;;;;;;5.25;3.95;;;;;;;19.63;98.73;99171.28;4991421;28;20033;-81
2023/06/13 02:10:42;;;;;;;3.80;2.67;;;;;;;19.61;98.09;99159.78;5007589;28;20201;-81
2023/06/13 02:13:07;;;;;;;5.05;4.00;;;;;;;19.35;98.11;99128.41;5007768;28;20038;-81
2023/06/13 02:15:33;;;;;;;8.48;4.20;;;;;;;19.60;99.12;99174.13;4991067;28;20132;-81
2023/06/13 02:17:58;;;;;;;5.85;3.38;;;;;;;19.55;100.00;99184.22;5011860;28;20551;-81
2023/06/13 02:20:24;;;;;;;3.38;2.05;;;;;;;19.28;100.00;99178.72;5009956;28;20452;-82
2023/06/13 02:22:49;;;;;;;4.22;2.55;;;;;;;19.21;99.81;99161.31;5011602;28;20609;-81
2023/06/13 02:25:15;;;;;;;5.60;3.65;;;;;;;19.21;99.43;99182.72;4995032;28;20042;-81
2023/06/13 02:27:42;;;;;;;6.03;3.67;;;;;;;19.07;98.34;99179.03;4991812;28;20068;-81
2023/06/13 02:30:10;;;;;;;7.88;2.88;;;;;;;18.89;96.92;99145.34;4992902;28;20041;-81
2023/06/13 02:32:39;;;;;;;3.22;2.55;;;;;;;19.05;96.63;99180.06;5047724;28;20036;-81
2023/06/13 02:35:08;;;;;;;4.35;2.42;;;;;;;19.06;96.09;99180.00;5093665;28;20063;-81
2023/06/13 02:37:33;;;;;;;5.60;3.03;;;;;;;18.78;96.39;99149.50;5075032;28;20410;-81
2023/06/13 02:39:59;;;;;;;6.07;4.20;;;;;;;18.93;96.39;99195.00;5094359;28;20055;-81
2023/06/13 02:42:27;;;;;;;5.47;3.42;;;;;;;18.74;97.18;99206.69;5093082;28;20423;-81
2023/06/13 02:44:52;;;;;;;6.45;3.55;;;;;;;18.65;97.61;99177.84;5093567;28;20077;-81
2023/06/13 02:47:20;;;;;;;3.72;2.85;;;;;;;18.82;97.14;99200.06;5093239;28;20122;-81
2023/06/13 02:49:45;;;;;;;6.70;4.18;;;;;;;18.99;96.33;99202.66;5075216;28;20442;-81
2023/06/13 02:52:11;;;;;;;5.00;3.47;;;;;;;18.91;95.43;99191.56;5093483;28;20024;-81
2023/06/13 02:54:36;;;;;;;4.28;3.33;;;;;;;18.59;96.49;99160.34;5092910;28;20457;-81
2023/06/13 02:57:02;;;;;;;3.45;2.60;;;;;;;18.87;96.37;99192.69;5092889;28;20032;-81
2023/06/13 02:59:28;;;;;;;5.00;2.90;;;;;;;19.18;95.72;99212.28;5092823;28;20035;-83
2023/06/13 03:01:53;;;;;;;6.35;3.28;;;;;;;19.21;94.86;99190.72;5094290;28;20119;-79
2023/06/13 03:04:18;;;;;;;5.03;3.17;;;;;;;19.19;94.21;99195.31;5092585;28;20036;-80
2023/06/13 03:06:44;;;;;;;3.58;2.95;;;;;;;19.14;93.98;99180.41;5109000;28;20385;-79
2023/06/13 03:09:11;;;;;;;4.57;3.45;;;;;;;19.20;94.09;99203.25;5112738;28;20031;-80
2023/06/13 03:11:36;;;;;;;7.00;3.50;;;;;;;19.41;94.03;99222.50;5086640;28;20050;-79
2023/06/13 03:14:02;;;;;;;15.50;4.03;;;;;;;19.56;93.44;99222.56;5091894;28;20028;-80
2023/06/13 03:16:28;;;;;;;3.85;3.22;;;;;;;19.36;92.56;99183.63;5092009;28;20467;-79
2023/06/13 03:18:54;;;;;;;3.47;2.42;;;;;;;19.41;92.35;99197.56;5092269;28;20027;-81
2023/06/13 03:21:20;;;;;;;5.72;3.97;;;;;;;19.41;92.27;99217.16;5102495;28;20032;-82
2023/06/13 03:23:46;;;;;;;5.40;3.28;;;;;;;19.43;92.05;99215.25;5110886;28;20093;-82
2023/06/13 03:26:12;;;;;;;6.18;2.83;;;;;;;19.37;92.46;99231.66;5111839;28;20032;-82
2023/06/13 03:28:37;;;;;;;6.65;3.75;;;;;;;19.16;92.63;99204.38;5110854;28;20418;-82
2023/06/13 03:31:04;;;;;;;11.82;3.60;;;;;;;19.23;93.14;99196.84;5102900;27;20066;-83
2023/06/13 03:33:29;;;;;;;5.90;4.35;;;;;;;19.01;93.28;99200.75;5092850;28;20497;-82
2023/06/13 03:35:55;;;;;;;5.05;3.08;;;;;;;19.23;94.28;99213.75;5097737;28;20121;-80
2023/06/13 03:38:20;;;;;;;3.70;3.00;;;;;;;19.14;94.69;99212.47;5111988;28;20125;-81
2023/06/13 03:40:46;;;;;;;8.15;4.38;;;;;;;19.08;96.33;99220.00;5112010;28;20046;-79
2023/06/13 03:43:12;;;;;;;6.80;3.83;;;;;;;18.94;98.42;99205.59;5096112;28;20023;-79
2023/06/13 03:45:37;;;;;;;4.32;3.40;;;;;;;18.93;98.86;99209.22;5091955;28;20061;-79
2023/06/13 03:48:03;;;;;;;3.72;3.22;;;;;;;18.85;98.49;99183.91;5084053;28;20104;-79
2023/06/13 03:50:29;;;;;;;11.65;2.47;;;;;;;19.02;98.70;99204.31;5093202;28;20040;-79
2023/06/13 03:52:54;;;;;;;5.88;4.10;;;;;;;18.75;98.51;99175.50;5073528;28;20036;-78
2023/06/13 03:55:23;;;;;;;12.13;3.80;;;;;;;19.06;98.21;99229.91;5091445;28;20036;-79
2023/06/13 03:57:49;;;;;;;6.05;3.38;;;;;;;18.96;98.89;99211.72;5074998;28;20050;-79
2023/06/13 04:00:15;;;;;;;6.68;3.42;;;;;;;19.19;97.65;99216.69;5091597;28;20036;-79
2023/06/13 04:02:41;;;;;;;8.35;3.00;;;;;;;19.09;96.25;99190.50;5103095;27;20031;-79
2023/06/13 04:05:07;;;;;;;5.07;3.78;;;;;;;19.25;95.86;99227.88;5099643;27;20102;-79
2023/06/13 04:07:35;;;;;;;14.07;5.32;;;;;;;19.43;95.01;99233.09;5097746;27;20034;-82
2023/06/13 04:10:02;;;;;;;4.70;2.45;;;;;;;19.50;94.06;99221.09;5112002;28;20031;-81
2023/06/13 04:12:29;;;;;;;4.55;2.97;;;;;;;19.34;94.22;99237.19;5098786;28;20028;-81
2023/06/13 04:14:54;;;;;;;5.60;3.97;;;;;;;19.38;94.23;99225.34;5091989;28;20478;-81
2023/06/13 04:17:20;;;;;;;5.43;4.00;;;;;;;19.16;94.89;99223.06;5093456;28;20039;-81
2023/06/13 04:19:45;;;;;;;5.55;4.15;;;;;;;19.37;93.68;99198.69;5102321;28;20035;-81
2023/06/13 04:22:11;;;;;;;2.80;2.47;;;;;;;19.27;94.26;99246.50;5101362;27;20059;-82
2023/06/13 04:24:38;;;;;;;4.78;3.53;;;;;;;19.26;94.48;99218.94;5106244;27;20028;-81
2023/06/13 04:27:03;;;;;;;6.20;3.75;;;;;;;19.38;94.61;99251.25;5114943;27;20055;-81
2023/06/13 04:29:30;;;;;;;4.88;4.07;;;;;;;19.20;94.50;99231.78;5106816;27;20457;-81
2023/06/13 04:31:56;;;;;;;6.68;3.50;;;;;;;19.57;93.92;99245.66;5109929;27;20051;-81
2023/06/13 04:34:24;;;;;;;4.65;3.83;;;;;;;19.63;94.47;99264.03;5108618;28;20027;-80
2023/06/13 04:36:55;;;;;;;11.98;4.43;;;;;;;19.78;94.39;99252.44;5108046;27;20130;-81
2023/06/13 04:39:23;;;;;;;6.97;4.28;;;;;;;19.79;95.20;99259.53;5098408;28;20077;-82
2023/06/13 04:41:55;;;;;;;11.50;5.13;;;;;;;19.73;95.21;99253.66;5089521;28;20122;-82
2023/06/13 04:44:27;;;;;;;5.68;4.30;;;;;;;19.72;94.44;99214.47;5091405;28;20039;-82
2023/06/13 04:46:57;;;;;;;6.32;3.65;;;;;;;19.96;94.22;99238.91;5091266;28;20082;-81
2023/06/13 04:49:23;;;;;;;9.45;4.70;;;;;;;20.20;93.23;99224.03;5108768;28;20035;-82
2023/06/13 04:51:49;;;;;;;6.68;3.92;;;;;;;20.08;92.02;99231.94;5098576;28;20032;-83
2023/06/13 04:54:15;;;;;;;7.65;4.18;;;;;;;20.06;93.06;99233.84;5100327;28;20031;-81
2023/06/13 04:56:41;;;;;;;12.18;3.33;;;;;;;20.34;92.50;99238.34;5098265;28;20460;-81
2023/06/13 04:59:06;;;;;;;6.93;4.13;;;;;;;20.62;91.81;99247.31;5098166;28;20060;-81
2023/06/13 05:01:32;;;;;;;5.80;3.63;;;;;;;20.84;90.77;99255.75;5097281;28;20486;-81
2023/06/13 05:03:58;;;;;;;6.28;4.28;;;;;;;21.12;90.27;99275.41;5096668;28;20031;-79
2023/06/13 05:06:24;;;;;;;10.18;5.57;;;;;;;21.09;88.84;99238.91;5093102;28;20552;-79
2023/06/13 05:08:52;;;;;;;7.90;5.10;;;;;;;21.22;88.61;99265.78;5100107;28;20566;-79
2023/06/13 05:11:17;;;;;;;10.50;5.80;;;;;;;21.24;88.55;99279.97;5094967;27;20028;-79
2023/06/13 05:13:43;;;;;;;5.55;4.15;;;;;;;21.26;89.39;99269.13;5087802;27;20036;-79
2023/06/13 05:16:09;;;;;;;7.88;5.53;;;;;;;21.45;88.35;99233.88;5094068;28;20040;-79
2023/06/13 05:18:35;;;;;;;10.32;3.80;;;;;;;21.68;86.33;99229.66;5092473;28;20520;-82
2023/06/13 05:21:01;;;;;;;9.60;4.95;;;;;;;22.09;83.34;99273.41;5093384;28;20036;-81
2023/06/13 05:23:28;;;;;;;11.23;5.55;;;;;;;21.97;84.36;99264.41;5098407;28;20096;-83
2023/06/13 05:25:53;;;;;;;10.02;5.40;;;;;;;22.16;84.05;99266.66;5095091;28;20070;-83
2023/06/13 05:28:20;;;;;;;6.53;4.57;;;;;;;22.44;84.64;99283.56;5094504;28;20048;-83
2023/06/13 05:30:45;;;;;;;13.55;4.50;;;;;;;22.72;83.63;99260.94;5095061;28;20123;-83
2023/06/13 05:33:11;;;;;;;8.18;5.15;;;;;;;22.50;80.90;99270.53;5093966;28;20481;-84
2023/06/13 05:35:37;;;;;;;6.28;4.32;;;;;;;22.42;79.55;99272.06;5083552;28;20038;-83
2023/06/13 05:38:02;;;;;;;7.78;5.50;;;;;;;22.50;79.13;99259.78;5100374;28;20077;-84
2023/06/13 05:40:28;;;;;;;6.03;3.90;;;;;;;22.79;78.74;99275.66;5074591;28;20048;-85
2023/06/13 05:42:53;;;;;;;6.22;4.90;;;;;;;23.12;78.20;99271.50;5091752;28;20036;-84
2023/06/13 05:45:21;;;;;;;8.13;4.63;;;;;;;23.38;77.41;99285.69;5093080;28;20054;-84
2023/06/13 05:47:46;;;;;;;6.18;4.57;;;;;;;23.34;74.66;99267.22;5097026;28;20088;-86
2023/06/13 05:50:12;;;;;;;11.50;4.30;;;;;;;23.78;73.26;99306.06;5094343;28;20107;-86
2023/06/13 05:52:38;;;;;;;5.18;3.13;;;;;;;23.59;72.45;99277.00;5094310;28;20024;-87
2023/06/13 05:55:06;;;;;;;5.78;3.70;;;;;;;23.69;72.42;99291.47;5092421;28;20020;-86
2023/06/13 05:57:43;;;;;;;4.50;3.00;;;;;;;23.43;72.09;99277.28;5089515;28;20634;-85
2023/06/13 06:00:14;;;;;;;4.15;2.90;;;;;;;23.78;73.00;99300.69;5098404;28;20047;-85
2023/06/13 06:02:43;;;;;;;4.43;2.75;;;;;;;23.57;71.50;99292.38;5090334;28;20508;-85
2023/06/13 06:05:11;;;;;;;5.30;3.30;;;;;;;23.42;71.65;99281.81;5098801;28;20097;-85
2023/06/13 06:07:48;;;;;;;4.72;2.67;;;;;;;23.47;72.19;99289.53;5091915;28;20035;-82
2023/06/13 06:10:13;;;;;;;13.40;3.50;;;;;;;23.38;74.48;99299.16;5089882;28;20047;-82
2023/06/13 06:12:39;;;;;;;14.38;3.75;;;;;;;23.29;73.47;99291.75;5098558;28;20020;-82
2023/06/13 06:15:05;;;;;;;5.55;2.85;;;;;;;23.52;73.27;99286.50;5103518;28;20024;-83
2023/06/13 06:17:31;;;;;;;10.15;3.65;;;;;;;23.02;71.19;99275.81;5088812;28;20142;-82
2023/06/13 06:19:56;;;;;;;4.22;2.60;;;;;;;23.03;72.96;99259.56;5094192;28;20027;-81
2023/06/13 06:22:22;;;;;;;19.13;4.88;;;;;;;23.37;71.71;99273.25;5098353;28;20027;-82
2023/06/13 06:24:47;;;;;;;3.58;3.05;;;;;;;23.37;71.15;99285.81;5099073;28;20032;-80
2023/06/13 06:27:13;;;;;;;8.30;2.40;;;;;;;23.48;70.59;99310.13;5093902;28;20027;-81
2023/06/13 06:29:39;;;;;;;4.07;2.92;;;;;;;23.57;71.22;99313.94;5094839;28;20058;-81
2023/06/13 06:32:06;;;;;;;9.88;2.70;;;;;;;23.42;70.13;99267.50;5096573;28;20509;-82
2023/06/13 06:34:32;;;;;;;4.68;2.75;;;;;;;23.45;69.70;99263.72;5098569;28;20028;-81
2023/06/13 06:36:58;;;;;;;5.22;3.47;;;;;;;23.58;69.17;99291.44;5103929;28;20039;-81
2023/06/13 06:39:23;;;;;;;3.42;3.13;;;;;;;23.38;71.34;99309.91;5100002;28;20024;-82
2023/06/13 06:41:49;;;;;;;13.30;3.08;;;;;;;23.93;70.35;99320.25;5096254;28;20395;-81
2023/06/13 06:44:14;;;;;;;6.30;3.95;;;;;;;23.95;70.21;99283.28;5098540;28;20028;-82
2023/06/13 06:46:40;;;;;;;3.88;2.30;;;;;;;23.88;67.88;99307.13;5094048;28;20055;-82
2023/06/13 06:49:06;;;;;;;5.47;3.97;;;;;;;23.77;68.46;99283.69;5093797;28;20031;-82
2023/06/13 06:51:31;;;;;;;5.28;2.90;;;;;;;23.99;69.10;99302.72;5091614;28;20048;-82
2023/06/13 06:53:57;;;;;;;4.43;3.25;;;;;;;24.30;69.25;99294.00;5088934;28;20470;-82
2023/06/13 06:56:22;;;;;;;4.35;2.25;;;;;;;24.48;68.78;99275.53;5093229;28;20481;-83
2023/06/13 06:58:48;;;;;;;7.25;3.13;;;;;;;24.40;66.44;99277.94;5083396;28;20434;-82
2023/06/13 07:01:18;;;;;;;5.78;3.70;;;;;;;24.32;66.55;99269.63;5092320;28;20020;-83
2023/06/13 07:03:47;;;;;;;4.65;2.88;;;;;;;24.45;68.01;99275.75;5097543;28;20084;-82
2023/06/13 07:06:12;;;;;;;4.43;2.70;;;;;;;24.37;66.27;99280.03;5082903;27;20109;-83
2023/06/13 07:08:38;;;;;;;4.03;2.80;;;;;;;24.41;67.26;99290.44;5098030;27;20043;-81
2023/06/13 07:11:05;;;;;;;3.40;2.58;;;;;;;24.70;68.25;99281.03;5095118;28;20342;-81
2023/06/13 07:13:32;;;;;;;4.03;2.90;;;;;;;24.10;66.30;99254.28;5096651;28;20512;-81
2023/06/13 07:15:58;;;;;;;9.13;3.75;;;;;;;24.35;66.35;99265.84;5092349;28;20383;-81
2023/06/13 07:18:24;;;;;;;4.50;3.40;;;;;;;24.06;66.28;99277.91;5096888;28;20031;-81
2023/06/13 07:20:49;;;;;;;3.97;2.70;;;;;;;23.93;65.83;99261.84;5095600;28;20085;-81
2023/06/13 07:23:15;;;;;;;3.25;2.55;;;;;;;24.44;64.45;99287.50;5095191;28;20044;-82
2023/06/13 07:25:41;;;;;;;3.65;3.00;;;;;;;24.02;64.82;99270.16;5098983;28;20024;-82
2023/06/13 07:28:07;;;;;;;4.78;2.70;;;;;;;24.48;64.88;99286.31;5096262;28;20020;-81
2023/06/13 07:30:32;;;;;;;6.72;2.70;;;;;;;24.42;64.93;99257.13;5077646;28;20050;-81
2023/06/13 07:32:58;;;;;;;4.97;3.10;;;;;;;24.46;64.21;99260.44;5101153;28;20024;-82
2023/06/13 07:35:23;;;;;;;3.90;2.42;;;;;;;24.65;62.83;99262.53;5099056;28;20465;-81
2023/06/13 07:37:53;;;;;;;3.50;2.75;;;;;;;24.38;65.63;99244.88;5093737;28;20050;-81
2023/06/13 07:40:21;;;;;;;7.68;3.50;;;;;;;24.41;64.76;99284.22;5101268;28;20148;-81
2023/06/13 07:42:47;;;;;;;3.65;2.30;;;;;;;24.73;64.05;99265.50;5084099;28;20493;-82
2023/06/13 07:45:14;;;;;;;3.92;2.60;;;;;;;24.74;62.92;99258.25;5097575;28;20043;-82
2023/06/13 07:47:39;;;;;;;5.13;2.60;;;;;;;24.74;62.21;99260.94;5097983;28;20024;-81
2023/06/13 07:50:05;;;;;;;9.50;2.95;;;;;;;24.83;62.54;99258.34;5093723;28;20558;-82
2023/06/13 07:52:31;;;;;;;2.13;1.85;;;;;;;24.36;64.79;99235.19;5111932;28;20108;-82
2023/06/13 07:54:57;;;;;;;3.58;2.25;;;;;;;24.68;64.74;99275.78;5112523;28;20024;-82
2023/06/13 07:57:23;;;;;;;5.57;2.40;;;;;;;24.77;62.27;99261.56;5111790;28;20508;-83
2023/06/13 07:59:48;;;;;;;2.85;1.75;;;;;;;24.54;62.57;99239.09;5093506;28;20061;-82
2023/06/13 08:02:13;;;;;;;3.83;2.33;;;;;;;24.57;63.32;99246.97;5111916;28;20032;-82
2023/06/13 08:04:39;;;;;;;4.15;2.78;;;;;;;24.50;61.83;99253.84;5112304;28;20481;-82
2023/06/13 08:07:04;;;;;;;3.33;1.75;;;;;;;24.64;61.68;99250.06;5112079;28;20020;-83
2023/06/13 08:09:30;;;;;;;4.35;2.60;;;;;;;24.71;62.00;99255.81;5112814;28;20050;-82
2023/06/13 08:11:58;;;;;;;4.05;2.28;;;;;;;24.89;63.27;99239.97;5112029;28;20023;-82
2023/06/13 08:14:23;;;;;;;4.28;2.78;;;;;;;25.81;62.11;99253.91;5110648;28;20081;-82
2023/06/13 08:16:49;;;;;;;2.78;2.30;;;;;;;26.22;58.99;99252.19;5112244;28;20082;-82
2023/06/13 08:19:15;;;;;;;2.70;2.10;;;;;;;26.73;55.36;99263.13;5096800;28;20031;-82
2023/06/13 08:21:41;;;;;;;3.65;2.05;;;;;;;26.95;55.51;99252.06;5092109;28;20170;-82
2023/06/13 08:24:06;;;;;;;3.42;1.92;;;;;;;26.57;57.51;99239.22;5091789;28;20119;-82
2023/06/13 08:26:32;;;;;;;7.65;3.00;;;;;;;26.15;57.29;99210.47;5091323;28;20481;-82
2023/06/13 08:28:59;;;;;;;3.22;2.67;;;;;;;26.45;56.62;99238.50;5090746;28;20485;-82
2023/06/13 08:31:24;;;;;;;3.92;3.05;;;;;;;26.46;54.27;99215.84;5092137;28;20404;-82
2023/06/13 08:33:51;;;;;;;3.83;2.85;;;;;;;26.58;56.42;99217.47;5091033;28;20036;-83
2023/06/13 08:36:17;;;;;;;2.13;1.50;;;;;;;27.01;54.69;99215.47;5091605;28;20093;-83
2023/06/13 08:38:42;;;;;;;3.97;2.38;;;;;;;27.15;56.92;99231.31;5098213;27;20048;-84
2023/06/13 08:41:10;;;;;;;3.78;2.33;;;;;;;27.04;54.54;99228.72;5092532;28;20047;-83
2023/06/13 08:43:36;;;;;;;5.78;2.03;;;;;;;27.05;54.79;99218.75;5094239;28;20049;-83
2023/06/13 08:46:02;;;;;;;4.25;2.35;;;;;;;27.11;52.50;99226.31;5095745;27;20040;-85
2023/06/13 08:48:32;;;;;;;3.58;2.05;;;;;;;27.40;54.39;99210.13;5092567;28;20032;-83
2023/06/13 08:51:00;;;;;;;6.78;1.83;;;;;;;27.73;54.41;99245.91;5079327;28;20512;-84
2023/06/13 08:53:29;;;;;;;1.73;1.63;;;;;;;28.21;52.51;99226.00;5080159;28;20094;-83
2023/06/13 08:55:56;;;;;;;3.95;1.90;;;;;;;28.60;49.45;99189.75;5099486;28;20036;-82
2023/06/13 08:58:27;;;;;;;8.80;2.30;;;;;;;28.51;49.82;99196.03;5099422;28;20035;-83
2023/06/13 09:00:54;;;;;;;1.45;1.17;;;;;;;29.24;46.84;99204.22;5092305;28;20077;-83
2023/06/13 09:03:20;;;;;;;2.30;1.58;;;;;;;29.34;46.70;99225.03;5110413;28;20027;-82
2023/06/13 09:05:47;;;;;;;2.88;1.65;;;;;;;28.86;46.26;99213.47;5110402;28;20168;-83
2023/06/13 09:08:14;;;;;;;3.30;1.60;;;;;;;28.97;45.67;99191.53;5091894;28;20429;-83
2023/06/13 09:10:40;;;;;;;4.90;1.98;;;;;;;28.81;45.66;99177.75;5110226;28;20036;-83
2023/06/13 09:13:07;;;;;;;4.25;1.58;;;;;;;28.46;45.33;99185.66;5083277;28;20055;-83
2023/06/13 09:15:33;;;;;;;2.47;1.50;;;;;;;28.41;45.44;99187.97;5098948;27;20024;-82
2023/06/13 09:18:00;;;;;;;2.67;2.28;;;;;;;28.27;45.37;99169.47;5095349;27;20028;-83
2023/06/13 09:20:27;;;;;;;2.75;2.00;;;;;;;28.08;49.16;99209.19;5079337;28;20170;-84
2023/06/13 09:22:52;;;;;;;12.95;2.25;;;;;;;28.35;47.86;99196.69;5098887;27;20027;-83
2023/06/13 09:25:21;;;;;;;1.48;1.13;;;;;;;28.11;47.90;99194.50;5102703;27;20026;-83
2023/06/13 09:27:46;;;;;;;4.45;2.72;;;;;;;27.41;47.65;99205.56;5100173;28;20647;-85
2023/06/13 09:30:15;;;;;;;2.92;2.00;;;;;;;27.78;49.61;99202.97;5100589;27;20040;-84
2023/06/13 09:32:51;;;;;;;3.72;1.92;;;;;;;27.88;48.51;99192.09;5099705;27;20055;-83
2023/06/13 09:35:17;;;;;;;2.70;1.60;;;;;;;27.80;48.29;99170.31;5109821;28;20062;-83
2023/06/13 09:37:44;;;;;;;3.08;1.85;;;;;;;27.87;48.47;99191.25;5094915;27;20028;-84
2023/06/13 09:40:10;;;;;;;2.03;1.75;;;;;;;27.02;49.38;99189.25;5095497;28;20048;-81
2023/06/13 09:42:36;;;;;;;10.88;1.90;;;;;;;26.73;50.02;99168.44;5088583;28;20024;-81
2023/06/13 09:45:08;;;;;;;3.08;2.10;;;;;;;26.79;51.06;99170.59;5096113;28;20019;-82
2023/06/13 09:47:34;;;;;;;1.80;1.40;;;;;;;27.08;49.35;99188.69;5081453;28;20035;-81
2023/06/13 09:50:01;;;;;;;3.03;1.85;;;;;;;27.22;49.95;99163.94;5089906;28;20248;-84
2023/06/13 09:52:33;;;;;;;3.72;2.00;;;;;;;27.14;48.74;99156.53;5091462;28;20106;-84
2023/06/13 09:54:58;;;;;;;2.40;1.60;;;;;;;27.28;48.66;99176.03;5101447;27;20031;-84
2023/06/13 09:57:24;;;;;;;2.03;1.38;;;;;;;27.46;49.62;99187.88;5096264;27;20035;-85
2023/06/13 09:59:51;;;;;;;4.13;2.38;;;;;;;27.43;49.64;99188.16;5103999;28;20039;-85
2023/06/13 10:02:19;;;;;;;2.28;1.52;;;;;;;28.00;46.95;99193.66;5097039;28;20054;-85
2023/06/13 10:04:45;;;;;;;3.75;1.77;;;;;;;28.08;46.61;99192.94;5093329;28;20081;-85
2023/06/13 10:07:11;;;;;;;3.47;1.60;;;;;;;28.45;47.79;99170.38;5092953;28;20016;-85
2023/06/13 10:09:38;;;;;;;4.10;1.48;;;;;;;28.30;45.99;99193.56;5094498;28;20020;-84
2023/06/13 10:12:08;;;;;;;1.95;1.67;;;;;;;28.24;43.80;99167.91;5076182;28;20036;-86
2023/06/13 10:14:40;;;;;;;2.42;1.63;;;;;;;28.67;44.25;99162.84;5075518;28;20032;-85
2023/06/13 10:17:11;;;;;;;3.40;1.67;;;;;;;28.00;44.78;99174.69;5094012;28;20115;-85
2023/06/13 10:19:39;;;;;;;2.15;1.25;;;;;;;28.33;46.59;99163.44;5094306;28;20118;-84
2023/06/13 10:22:06;;;;;;;3.53;2.50;;;;;;;28.49;46.50;99184.50;5069608;28;20067;-84
2023/06/13 10:24:35;;;;;;;3.78;2.25;;;;;;;28.49;45.27;99155.50;5076843;28;20027;-83
2023/06/13 10:27:01;;;;;;;8.27;1.60;;;;;;;28.21;47.35;99117.53;5092694;28;20028;-84
2023/06/13 10:29:47;;;;;;;1.95;1.20;;;;;;;28.93;44.08;99171.09;5090794;28;20031;-85
2023/06/13 10:32:22;;;;;;;5.55;1.75;;;;;;;29.06;44.56;99177.03;5092251;28;20044;-86
2023/06/13 10:35:30;;;;;;;1.97;1.77;;;;;;;29.25;43.39;99164.34;5069868;28;20035;-84
2023/06/13 10:38:15;;;;;;;2.47;1.52;;;;;;;29.19;43.57;99164.94;5091074;28;20552;-83
2023/06/13 10:41:15;;;;;;;5.57;3.08;;;;;;;29.12;44.03;99167.41;5078590;28;20724;-83
2023/06/13 10:43:51;;;;;;;2.40;1.40;;;;;;;28.86;43.07;99175.47;5076346;28;20137;-84
2023/06/13 10:46:17;;;;;;;3.90;1.95;;;;;;;28.75;42.75;99150.25;5083554;28;20020;-83
2023/06/13 10:48:50;;;;;;;3.05;1.77;;;;;;;28.85;42.94;99138.47;5100666;28;20094;-83
2023/06/13 10:51:36;;;;;;;3.17;1.85;;;;;;;29.06;42.90;99152.59;5097971;28;20565;-83
2023/06/13 10:54:02;;;;;;;2.97;1.67;;;;;;;29.41;42.94;99172.63;5077296;28;20036;-85
2023/06/13 10:56:32;;;;;;;3.05;1.50;;;;;;;29.28;42.95;99145.84;5095381;28;20043;-83
2023/06/13 10:59:03;;;;;;;2.53;1.63;;;;;;;29.42;42.65;99152.59;5094763;28;20028;-84
2023/06/13 11:01:39;;;;;;;1.90;1.20;;;;;;;28.72;42.14;99126.13;5096045;28;20401;-83
2023/06/13 11:04:17;;;;;;;2.83;1.52;;;;;;;28.99;42.32;99115.38;5096000;27;20023;-83
2023/06/13 11:06:44;;;;;;;3.13;1.67;;;;;;;29.20;42.12;99143.06;5103493;28;20032;-84
2023/06/13 11:09:23;;;;;;;3.90;1.73;;;;;;;28.98;42.24;99113.66;5095585;28;20451;-86
2023/06/13 11:11:56;;;;;;;2.83;1.23;;;;;;;28.67;42.68;99141.16;5085288;28;20436;-84
2023/06/13 11:14:32;;;;;;;1.83;1.10;;;;;;;28.13;43.61;99103.03;5081954;28;20038;-84
2023/06/13 11:16:58;;;;;;;3.72;1.40;;;;;;;28.23;44.45;99120.09;5097735;28;20036;-83
2023/06/13 11:19:27;;;;;;;2.72;1.45;;;;;;;28.34;43.80;99135.31;5098825;28;20039;-84
2023/06/13 11:21:59;;;;;;;3.10;1.55;;;;;;;29.00;45.65;99138.78;5101925;28;20030;-83
2023/06/13 11:24:28;;;;;;;2.80;1.85;;;;;;;28.28;43.84;99122.38;5097672;28;20024;-83
2023/06/13 11:26:55;;;;;;;3.95;2.10;;;;;;;28.42;43.71;99104.72;5098696;28;20028;-83
2023/06/13 11:29:21;;;;;;;1.98;1.27;;;;;;;28.58;44.15;99130.22;5094984;28;20130;-83
2023/06/13 11:31:51;;;;;;;3.60;1.80;;;;;;;27.95;44.77;99073.13;5091904;28;20541;-83
2023/06/13 11:34:20;;;;;;;1.75;1.23;;;;;;;28.04;43.74;99119.19;5095590;28;20077;-83
2023/06/13 11:36:46;;;;;;;2.35;1.60;;;;;;;27.89;43.24;99120.66;5095278;28;20055;-84